sensor_id;sensor_type;location;lat;lon;timestamp;pressure;altitude;pressure_sealevel;temperature;humidity
57900;BME280;60605;53.716;19.940;2023-02-28T00:03:29;101922.30;;;-5.08;100.00
57900;BME280;60605;53.716;19.940;2023-02-28T00:08:32;101916.23;;;-5.11;100.00
57900;BME280;60605;53.716;19.940;2023-02-28T00:13:38;101917.29;;;-5.12;100.00
57900;BME280;60605;53.716;19.940;2023-02-28T00:18:42;101913.98;;;-5.13;100.00
57900;BME280;60605;53.716;19.940;2023-02-28T00:23:46;101914.52;;;-5.14;100.00
57900;BME280;60605;53.716;19.940;2023-02-28T00:28:52;101912.48;;;-5.20;100.00
57900;BME280;60605;53.716;19.940;2023-02-28T00:33:55;101916.35;;;-5.25;100.00
57900;BME280;60605;53.716;19.940;2023-02-28T00:38:58;101919.88;;;-5.29;100.00
57900;BME280;60605;53.716;19.940;2023-02-28T00:44:01;101924.60;;;-5.33;100.00
57900;BME280;60605;53.716;19.940;2023-02-28T00:49:04;101921.70;;;-5.40;100.00
57900;BME280;60605;53.716;19.940;2023-02-28T00:54:07;101910.08;;;-5.45;100.00
57900;BME280;60605;53.716;19.940;2023-02-28T00:59:10;101915.66;;;-5.46;100.00
57900;BME280;60605;53.716;19.940;2023-02-28T01:04:14;101919.86;;;-5.49;100.00
57900;BME280;60605;53.716;19.940;2023-02-28T01:09:18;101918.49;;;-5.53;100.00
57900;BME280;60605;53.716;19.940;2023-02-28T01:14:21;101919.39;;;-5.57;100.00
57900;BME280;60605;53.716;19.940;2023-02-28T01:19:25;101919.94;;;-5.61;100.00
57900;BME280;60605;53.716;19.940;2023-02-28T01:24:28;101918.73;;;-5.63;100.00
57900;BME280;60605;53.716;19.940;2023-02-28T01:29:31;101915.97;;;-5.66;100.00
57900;BME280;60605;53.716;19.940;2023-02-28T01:34:35;101917.77;;;-5.72;100.00
57900;BME280;60605;53.716;19.940;2023-02-28T01:39:38;101921.45;;;-5.78;100.00
57900;BME280;60605;53.716;19.940;2023-02-28T01:50:04;101920.27;;;-5.81;100.00
57900;BME280;60605;53.716;19.940;2023-02-28T01:55:10;101924.30;;;-5.84;100.00
57900;BME280;60605;53.716;19.940;2023-02-28T02:00:17;101922.60;;;-5.88;100.00
57900;BME280;60605;53.716;19.940;2023-02-28T02:05:23;101918.45;;;-5.92;100.00
57900;BME280;60605;53.716;19.940;2023-02-28T02:10:54;101915.85;;;-5.95;100.00
57900;BME280;60605;53.716;19.940;2023-02-28T02:37:45;101924.81;;;-6.10;100.00
57900;BME280;60605;53.716;19.940;2023-02-28T02:48:19;101931.80;;;-6.16;100.00
57900;BME280;60605;53.716;19.940;2023-02-28T02:53:29;101928.69;;;-6.20;100.00
57900;BME280;60605;53.716;19.940;2023-02-28T02:58:37;101922.08;;;-6.20;100.00
57900;BME280;60605;53.716;19.940;2023-02-28T03:03:45;101923.48;;;-6.20;100.00
57900;BME280;60605;53.716;19.940;2023-02-28T03:08:48;101930.60;;;-6.21;100.00
57900;BME280;60605;53.716;19.940;2023-02-28T03:29:50;101938.30;;;-6.32;100.00
57900;BME280;60605;53.716;19.940;2023-02-28T03:35:11;101939.52;;;-6.36;100.00
57900;BME280;60605;53.716;19.940;2023-02-28T03:40:22;101938.66;;;-6.38;100.00
57900;BME280;60605;53.716;19.940;2023-02-28T03:45:30;101943.18;;;-6.39;100.00
57900;BME280;60605;53.716;19.940;2023-02-28T03:50:40;101940.40;;;-6.38;100.00
57900;BME280;60605;53.716;19.940;2023-02-28T03:55:51;101938.85;;;-6.40;100.00
57900;BME280;60605;53.716;19.940;2023-02-28T04:01:05;101938.15;;;-6.42;100.00
57900;BME280;60605;53.716;19.940;2023-02-28T04:06:19;101943.89;;;-6.44;100.00
57900;BME280;60605;53.716;19.940;2023-02-28T04:11:36;101945.48;;;-6.48;100.00
57900;BME280;60605;53.716;19.940;2023-02-28T04:16:41;101947.77;;;-6.52;100.00
57900;BME280;60605;53.716;19.940;2023-02-28T04:21:47;101946.21;;;-6.57;100.00
57900;BME280;60605;53.716;19.940;2023-02-28T04:26:54;101946.73;;;-6.64;100.00
57900;BME280;60605;53.716;19.940;2023-02-28T04:31:59;101947.11;;;-6.72;100.00
57900;BME280;60605;53.716;19.940;2023-02-28T04:37:04;101938.77;;;-6.75;100.00
57900;BME280;60605;53.716;19.940;2023-02-28T04:42:15;101937.39;;;-6.77;100.00
57900;BME280;60605;53.716;19.940;2023-02-28T04:47:18;101936.70;;;-6.78;100.00
57900;BME280;60605;53.716;19.940;2023-02-28T04:52:21;101935.31;;;-6.78;100.00
57900;BME280;60605;53.716;19.940;2023-02-28T04:57:24;101933.92;;;-6.77;100.00
57900;BME280;60605;53.716;19.940;2023-02-28T05:02:28;101934.27;;;-6.79;100.00
57900;BME280;60605;53.716;19.940;2023-02-28T05:07:31;101932.73;;;-6.85;100.00
57900;BME280;60605;53.716;19.940;2023-02-28T05:12:34;101934.64;;;-6.91;100.00
57900;BME280;60605;53.716;19.940;2023-02-28T05:17:37;101935.70;;;-6.95;100.00
57900;BME280;60605;53.716;19.940;2023-02-28T05:22:41;101936.23;;;-6.97;100.00
57900;BME280;60605;53.716;19.940;2023-02-28T05:27:44;101945.95;;;-6.98;100.00
57900;BME280;60605;53.716;19.940;2023-02-28T05:32:50;101950.63;;;-6.95;100.00
57900;BME280;60605;53.716;19.940;2023-02-28T05:37:54;101947.33;;;-6.94;100.00
57900;BME280;60605;53.716;19.940;2023-02-28T05:42:57;101945.23;;;-6.89;100.00
57900;BME280;60605;53.716;19.940;2023-02-28T05:48:00;101948.17;;;-6.82;100.00
57900;BME280;60605;53.716;19.940;2023-02-28T05:53:04;101950.75;;;-6.71;100.00
57900;BME280;60605;53.716;19.940;2023-02-28T05:58:07;101954.88;;;-6.58;100.00
57900;BME280;60605;53.716;19.940;2023-02-28T06:03:10;101968.22;;;-6.42;100.00
57900;BME280;60605;53.716;19.940;2023-02-28T06:08:13;101970.77;;;-6.25;100.00
57900;BME280;60605;53.716;19.940;2023-02-28T06:13:16;101975.09;;;-5.87;100.00
57900;BME280;60605;53.716;19.940;2023-02-28T06:18:19;101983.45;;;-4.62;100.00
57900;BME280;60605;53.716;19.940;2023-02-28T06:23:22;101988.58;;;-2.49;100.00
57900;BME280;60605;53.716;19.940;2023-02-28T06:28:26;101995.59;;;-0.12;100.00
57900;BME280;60605;53.716;19.940;2023-02-28T06:33:29;101998.36;;;2.32;99.90
57900;BME280;60605;53.716;19.940;2023-02-28T06:38:33;102001.17;;;4.55;94.47
57900;BME280;60605;53.716;19.940;2023-02-28T06:43:40;101997.48;;;6.76;85.18
57900;BME280;60605;53.716;19.940;2023-02-28T06:48:44;101992.17;;;8.82;79.63
57900;BME280;60605;53.716;19.940;2023-02-28T06:53:48;101984.32;;;10.96;75.25
57900;BME280;60605;53.716;19.940;2023-02-28T06:58:51;101987.63;;;12.89;68.82
57900;BME280;60605;53.716;19.940;2023-02-28T07:03:55;101982.76;;;14.07;60.83
57900;BME280;60605;53.716;19.940;2023-02-28T07:08:59;101979.20;;;15.24;56.83
57900;BME280;60605;53.716;19.940;2023-02-28T07:14:02;101982.86;;;16.66;54.61
57900;BME280;60605;53.716;19.940;2023-02-28T07:19:06;101983.02;;;18.01;49.52
57900;BME280;60605;53.716;19.940;2023-02-28T07:24:09;101985.36;;;18.80;47.11
57900;BME280;60605;53.716;19.940;2023-02-28T07:29:13;101988.89;;;19.60;44.33
57900;BME280;60605;53.716;19.940;2023-02-28T07:34:17;101985.55;;;20.23;40.46
57900;BME280;60605;53.716;19.940;2023-02-28T07:39:21;101985.80;;;20.80;38.99
57900;BME280;60605;53.716;19.940;2023-02-28T07:44:25;101978.69;;;21.41;37.41
57900;BME280;60605;53.716;19.940;2023-02-28T07:49:31;101975.59;;;22.15;35.95
57900;BME280;60605;53.716;19.940;2023-02-28T07:54:34;101970.08;;;22.95;34.26
57900;BME280;60605;53.716;19.940;2023-02-28T07:59:38;101968.98;;;23.56;31.94
57900;BME280;60605;53.716;19.940;2023-02-28T08:04:42;101969.30;;;23.87;30.14
57900;BME280;60605;53.716;19.940;2023-02-28T08:09:46;101969.16;;;24.14;29.13
57900;BME280;60605;53.716;19.940;2023-02-28T08:14:49;101975.98;;;24.45;29.15
57900;BME280;60605;53.716;19.940;2023-02-28T08:19:53;101975.77;;;25.13;28.33
57900;BME280;60605;53.716;19.940;2023-02-28T08:24:56;101972.09;;;25.74;26.98
57900;BME280;60605;53.716;19.940;2023-02-28T08:29:59;101973.15;;;26.42;26.73
57900;BME280;60605;53.716;19.940;2023-02-28T08:35:03;101975.10;;;26.98;25.95
57900;BME280;60605;53.716;19.940;2023-02-28T08:40:09;101978.46;;;27.37;25.06
57900;BME280;60605;53.716;19.940;2023-02-28T08:45:14;101974.84;;;27.79;24.53
57900;BME280;60605;53.716;19.940;2023-02-28T08:50:17;101981.69;;;28.25;24.01
57900;BME280;60605;53.716;19.940;2023-02-28T08:55:22;101989.07;;;28.55;22.99
57900;BME280;60605;53.716;19.940;2023-02-28T09:00:26;101993.12;;;28.49;22.37
57900;BME280;60605;53.716;19.940;2023-02-28T09:05:29;101992.84;;;28.70;22.40
57900;BME280;60605;53.716;19.940;2023-02-28T09:10:34;101989.64;;;29.19;22.44
57900;BME280;60605;53.716;19.940;2023-02-28T09:15:38;101984.88;;;29.44;21.41
57900;BME280;60605;53.716;19.940;2023-02-28T09:20:42;101975.64;;;29.69;21.44
57900;BME280;60605;53.716;19.940;2023-02-28T09:25:48;101971.36;;;30.04;20.83
57900;BME280;60605;53.716;19.940;2023-02-28T09:30:53;101975.25;;;30.06;19.98
57900;BME280;60605;53.716;19.940;2023-02-28T09:35:59;101968.05;;;29.97;19.96
57900;BME280;60605;53.716;19.940;2023-02-28T09:41:58;101959.77;;;30.06;20.14
57900;BME280;60605;53.716;19.940;2023-02-28T09:46:45;101962.31;;;30.11;19.54
57900;BME280;60605;53.716;19.940;2023-02-28T09:51:55;101965.09;;;30.24;19.73
57900;BME280;60605;53.716;19.940;2023-02-28T10:12:26;101931.94;;;30.62;19.22
57900;BME280;60605;53.716;19.940;2023-02-28T10:17:39;101931.55;;;30.52;18.31
57900;BME280;60605;53.716;19.940;2023-02-28T10:23:18;101925.23;;;28.76;18.72
57900;BME280;60605;53.716;19.940;2023-02-28T10:28:25;101910.23;;;23.54;22.02
57900;BME280;60605;53.716;19.940;2023-02-28T10:33:34;101895.15;;;18.69;25.61
57900;BME280;60605;53.716;19.940;2023-02-28T10:38:39;101897.02;;;14.92;29.68
57900;BME280;60605;53.716;19.940;2023-02-28T10:43:43;101901.24;;;12.40;33.09
57900;BME280;60605;53.716;19.940;2023-02-28T10:49:00;101898.70;;;10.65;36.11
57900;BME280;60605;53.716;19.940;2023-02-28T10:54:04;101900.61;;;9.35;38.90
57900;BME280;60605;53.716;19.940;2023-02-28T11:09:35;101902.49;;;7.12;44.86
57900;BME280;60605;53.716;19.940;2023-02-28T11:14:47;101894.88;;;6.70;46.07
57900;BME280;60605;53.716;19.940;2023-02-28T11:19:54;101889.20;;;6.33;46.08
57900;BME280;60605;53.716;19.940;2023-02-28T11:25:07;101892.58;;;6.08;47.33
57900;BME280;60605;53.716;19.940;2023-02-28T11:35:38;101879.98;;;5.85;48.16
57900;BME280;60605;53.716;19.940;2023-02-28T11:46:11;101872.73;;;5.75;48.79
57900;BME280;60605;53.716;19.940;2023-02-28T11:51:22;101862.13;;;5.71;48.41
57900;BME280;60605;53.716;19.940;2023-02-28T12:07:03;101837.98;;;5.72;49.21
57900;BME280;60605;53.716;19.940;2023-02-28T12:17:49;101824.02;;;5.68;50.26
57900;BME280;60605;53.716;19.940;2023-02-28T12:23:06;101818.08;;;5.66;49.53
57900;BME280;60605;53.716;19.940;2023-02-28T12:28:15;101814.34;;;5.67;49.91
57900;BME280;60605;53.716;19.940;2023-02-28T12:33:22;101813.34;;;5.65;50.08
57900;BME280;60605;53.716;19.940;2023-02-28T12:38:29;101809.20;;;5.63;50.45
57900;BME280;60605;53.716;19.940;2023-02-28T12:44:00;101807.22;;;5.64;50.98
57900;BME280;60605;53.716;19.940;2023-02-28T12:49:13;101803.13;;;5.64;50.61
57900;BME280;60605;53.716;19.940;2023-02-28T12:54:38;101806.02;;;5.60;50.36
57900;BME280;60605;53.716;19.940;2023-02-28T12:59:55;101803.03;;;5.59;50.74
57900;BME280;60605;53.716;19.940;2023-02-28T13:10:19;101790.52;;;5.52;50.74
57900;BME280;60605;53.716;19.940;2023-02-28T13:15:27;101783.79;;;5.48;50.95
57900;BME280;60605;53.716;19.940;2023-02-28T13:20:36;101781.50;;;5.45;50.76
57900;BME280;60605;53.716;19.940;2023-02-28T13:51:52;101763.50;;;5.37;52.37
57900;BME280;60605;53.716;19.940;2023-02-28T14:02:37;101754.84;;;5.27;53.04
57900;BME280;60605;53.716;19.940;2023-02-28T14:07:49;101736.39;;;5.24;54.06
57900;BME280;60605;53.716;19.940;2023-02-28T14:18:03;101723.59;;;5.15;53.90
57900;BME280;60605;53.716;19.940;2023-02-28T14:23:40;101726.91;;;5.09;54.09
57900;BME280;60605;53.716;19.940;2023-02-28T14:34:42;101735.77;;;4.93;54.27
57900;BME280;60605;53.716;19.940;2023-02-28T14:39:50;101726.66;;;4.85;54.76
57900;BME280;60605;53.716;19.940;2023-02-28T14:44:54;101722.22;;;4.78;55.14
57900;BME280;60605;53.716;19.940;2023-02-28T14:50:02;101726.81;;;4.72;55.55
57900;BME280;60605;53.716;19.940;2023-02-28T14:55:17;101725.64;;;4.64;55.66
57900;BME280;60605;53.716;19.940;2023-02-28T15:00:30;101720.60;;;4.55;55.80
57900;BME280;60605;53.716;19.940;2023-02-28T15:05:35;101719.75;;;4.48;56.07
57900;BME280;60605;53.716;19.940;2023-02-28T15:10:41;101717.79;;;4.38;56.45
57900;BME280;60605;53.716;19.940;2023-02-28T15:15:51;101709.36;;;4.26;56.70
57900;BME280;60605;53.716;19.940;2023-02-28T15:21:17;101714.63;;;4.14;57.16
57900;BME280;60605;53.716;19.940;2023-02-28T15:26:26;101725.10;;;3.99;57.36
57900;BME280;60605;53.716;19.940;2023-02-28T15:31:33;101722.20;;;3.82;57.65
57900;BME280;60605;53.716;19.940;2023-02-28T15:36:58;101713.39;;;3.63;58.19
57900;BME280;60605;53.716;19.940;2023-02-28T15:42:13;101718.27;;;3.46;59.01
57900;BME280;60605;53.716;19.940;2023-02-28T15:47:24;101717.38;;;3.27;59.79
57900;BME280;60605;53.716;19.940;2023-02-28T15:52:39;101717.45;;;3.07;60.55
57900;BME280;60605;53.716;19.940;2023-02-28T15:57:45;101711.63;;;2.84;61.17
57900;BME280;60605;53.716;19.940;2023-02-28T16:02:49;101713.20;;;2.61;61.82
57900;BME280;60605;53.716;19.940;2023-02-28T16:07:55;101707.91;;;2.36;62.56
57900;BME280;60605;53.716;19.940;2023-02-28T16:13:02;101704.73;;;2.12;63.14
57900;BME280;60605;53.716;19.940;2023-02-28T16:18:08;101697.16;;;1.87;63.89
57900;BME280;60605;53.716;19.940;2023-02-28T16:23:13;101698.39;;;1.61;64.59
57900;BME280;60605;53.716;19.940;2023-02-28T16:28:30;101697.20;;;1.33;65.50
57900;BME280;60605;53.716;19.940;2023-02-28T16:33:54;101688.48;;;1.04;66.78
57900;BME280;60605;53.716;19.940;2023-02-28T16:38:59;101671.67;;;0.78;67.98
57900;BME280;60605;53.716;19.940;2023-02-28T16:44:11;101670.61;;;0.55;69.15
57900;BME280;60605;53.716;19.940;2023-02-28T16:49:16;101666.16;;;0.32;70.31
57900;BME280;60605;53.716;19.940;2023-02-28T16:54:20;101670.60;;;0.11;71.24
57900;BME280;60605;53.716;19.940;2023-02-28T16:59:24;101668.27;;;-0.09;72.13
57900;BME280;60605;53.716;19.940;2023-02-28T17:04:30;101669.55;;;-0.26;73.27
57900;BME280;60605;53.716;19.940;2023-02-28T17:09:34;101676.52;;;-0.40;74.10
57900;BME280;60605;53.716;19.940;2023-02-28T17:14:45;101685.40;;;-0.54;74.41
57900;BME280;60605;53.716;19.940;2023-02-28T17:19:49;101684.55;;;-0.66;75.27
57900;BME280;60605;53.716;19.940;2023-02-28T17:24:53;101678.15;;;-0.75;76.13
57900;BME280;60605;53.716;19.940;2023-02-28T17:30:00;101673.13;;;-0.83;76.68
57900;BME280;60605;53.716;19.940;2023-02-28T17:35:08;101677.95;;;-0.91;77.26
57900;BME280;60605;53.716;19.940;2023-02-28T17:40:15;101683.98;;;-0.99;77.73
57900;BME280;60605;53.716;19.940;2023-02-28T17:45:21;101689.55;;;-1.04;78.46
57900;BME280;60605;53.716;19.940;2023-02-28T17:50:29;101676.41;;;-1.10;78.78
57900;BME280;60605;53.716;19.940;2023-02-28T17:55:35;101674.06;;;-1.19;79.40
57900;BME280;60605;53.716;19.940;2023-02-28T18:00:40;101681.52;;;-1.29;79.91
57900;BME280;60605;53.716;19.940;2023-02-28T18:05:46;101687.05;;;-1.39;81.13
57900;BME280;60605;53.716;19.940;2023-02-28T18:10:52;101680.04;;;-1.44;82.24
57900;BME280;60605;53.716;19.940;2023-02-28T18:15:55;101683.20;;;-1.51;82.72
57900;BME280;60605;53.716;19.940;2023-02-28T18:21:00;101679.16;;;-1.57;83.30
57900;BME280;60605;53.716;19.940;2023-02-28T18:26:07;101682.66;;;-1.64;83.80
57900;BME280;60605;53.716;19.940;2023-02-28T18:31:15;101683.36;;;-1.70;84.54
57900;BME280;60605;53.716;19.940;2023-02-28T18:36:20;101690.46;;;-1.73;84.91
57900;BME280;60605;53.716;19.940;2023-02-28T18:41:26;101698.87;;;-1.80;84.98
57900;BME280;60605;53.716;19.940;2023-02-28T18:46:31;101700.98;;;-1.88;85.33
57900;BME280;60605;53.716;19.940;2023-02-28T18:51:35;101696.92;;;-1.93;85.97
57900;BME280;60605;53.716;19.940;2023-02-28T18:56:42;101691.61;;;-1.97;86.33
57900;BME280;60605;53.716;19.940;2023-02-28T19:01:46;101682.98;;;-2.02;86.94
57900;BME280;60605;53.716;19.940;2023-02-28T19:06:50;101671.57;;;-2.07;87.46
57900;BME280;60605;53.716;19.940;2023-02-28T19:11:55;101685.88;;;-2.12;88.33
57900;BME280;60605;53.716;19.940;2023-02-28T19:16:59;101691.02;;;-2.15;89.01
57900;BME280;60605;53.716;19.940;2023-02-28T19:22:03;101685.98;;;-2.17;89.42
57900;BME280;60605;53.716;19.940;2023-02-28T19:27:06;101683.91;;;-2.18;89.75
57900;BME280;60605;53.716;19.940;2023-02-28T19:32:11;101689.07;;;-2.21;89.80
57900;BME280;60605;53.716;19.940;2023-02-28T19:37:16;101698.77;;;-2.25;90.25
57900;BME280;60605;53.716;19.940;2023-02-28T19:42:21;101698.70;;;-2.28;90.52
57900;BME280;60605;53.716;19.940;2023-02-28T19:47:24;101695.08;;;-2.31;90.82
57900;BME280;60605;53.716;19.940;2023-02-28T19:52:29;101689.19;;;-2.33;91.03
57900;BME280;60605;53.716;19.940;2023-02-28T19:57:33;101687.83;;;-2.35;91.53
57900;BME280;60605;53.716;19.940;2023-02-28T20:02:37;101690.33;;;-2.37;92.00
57900;BME280;60605;53.716;19.940;2023-02-28T20:07:41;101697.48;;;-2.37;92.65
57900;BME280;60605;53.716;19.940;2023-02-28T20:12:45;101688.71;;;-2.35;93.44
57900;BME280;60605;53.716;19.940;2023-02-28T20:17:51;101690.93;;;-2.33;93.80
57900;BME280;60605;53.716;19.940;2023-02-28T20:22:55;101687.44;;;-2.33;93.88
57900;BME280;60605;53.716;19.940;2023-02-28T20:27:59;101685.68;;;-2.33;94.11
57900;BME280;60605;53.716;19.940;2023-02-28T20:33:03;101686.01;;;-2.32;94.55
57900;BME280;60605;53.716;19.940;2023-02-28T20:38:08;101682.64;;;-2.30;94.88
57900;BME280;60605;53.716;19.940;2023-02-28T20:43:12;101685.21;;;-2.28;95.12
57900;BME280;60605;53.716;19.940;2023-02-28T20:48:16;101690.96;;;-2.27;95.31
57900;BME280;60605;53.716;19.940;2023-02-28T20:53:20;101684.79;;;-2.25;95.36
57900;BME280;60605;53.716;19.940;2023-02-28T20:58:25;101683.55;;;-2.24;95.50
57900;BME280;60605;53.716;19.940;2023-02-28T21:03:30;101675.52;;;-2.25;95.56
57900;BME280;60605;53.716;19.940;2023-02-28T21:08:35;101672.94;;;-2.27;95.79
57900;BME280;60605;53.716;19.940;2023-02-28T21:13:41;101666.48;;;-2.27;96.02
57900;BME280;60605;53.716;19.940;2023-02-28T21:18:46;101651.96;;;-2.27;96.22
57900;BME280;60605;53.716;19.940;2023-02-28T21:23:50;101646.11;;;-2.25;96.75
57900;BME280;60605;53.716;19.940;2023-02-28T21:28:56;101645.34;;;-2.22;97.02
57900;BME280;60605;53.716;19.940;2023-02-28T21:34:02;101646.94;;;-2.23;96.85
57900;BME280;60605;53.716;19.940;2023-02-28T21:39:10;101644.88;;;-2.24;97.08
57900;BME280;60605;53.716;19.940;2023-02-28T21:44:14;101651.92;;;-2.26;97.07
57900;BME280;60605;53.716;19.940;2023-02-28T21:49:22;101657.92;;;-2.28;97.25
57900;BME280;60605;53.716;19.940;2023-02-28T21:54:26;101667.99;;;-2.25;97.75
57900;BME280;60605;53.716;19.940;2023-02-28T21:59:29;101665.15;;;-2.17;98.32
57900;BME280;60605;53.716;19.940;2023-02-28T22:04:32;101645.32;;;-2.08;98.52
57900;BME280;60605;53.716;19.940;2023-02-28T22:09:36;101634.42;;;-1.99;98.92
57900;BME280;60605;53.716;19.940;2023-02-28T22:14:39;101632.23;;;-1.96;98.56
57900;BME280;60605;53.716;19.940;2023-02-28T22:19:42;101619.86;;;-1.98;98.41
57900;BME280;60605;53.716;19.940;2023-02-28T22:24:46;101616.08;;;-2.01;98.57
57900;BME280;60605;53.716;19.940;2023-02-28T22:29:49;101611.72;;;-2.01;98.98
57900;BME280;60605;53.716;19.940;2023-02-28T22:34:52;101618.02;;;-2.01;98.99
57900;BME280;60605;53.716;19.940;2023-02-28T22:39:55;101620.15;;;-2.02;98.82
57900;BME280;60605;53.716;19.940;2023-02-28T22:44:58;101622.65;;;-2.04;98.70
57900;BME280;60605;53.716;19.940;2023-02-28T22:50:02;101626.58;;;-2.07;98.66
57900;BME280;60605;53.716;19.940;2023-02-28T22:55:08;101620.04;;;-2.11;98.68
57900;BME280;60605;53.716;19.940;2023-02-28T23:00:12;101621.88;;;-2.14;98.84
57900;BME280;60605;53.716;19.940;2023-02-28T23:05:19;101619.13;;;-2.16;98.78
57900;BME280;60605;53.716;19.940;2023-02-28T23:10:22;101609.23;;;-2.19;98.64
57900;BME280;60605;53.716;19.940;2023-02-28T23:15:26;101616.79;;;-2.21;98.72
57900;BME280;60605;53.716;19.940;2023-02-28T23:20:29;101614.37;;;-2.22;98.92
57900;BME280;60605;53.716;19.940;2023-02-28T23:25:32;101610.71;;;-2.22;98.83
57900;BME280;60605;53.716;19.940;2023-02-28T23:30:36;101604.96;;;-2.23;98.83
57900;BME280;60605;53.716;19.940;2023-02-28T23:35:40;101603.88;;;-2.22;99.17
57900;BME280;60605;53.716;19.940;2023-02-28T23:40:44;101616.44;;;-2.20;99.19
57900;BME280;60605;53.716;19.940;2023-02-28T23:45:54;101623.04;;;-2.19;99.28
57900;BME280;60605;53.716;19.940;2023-02-28T23:51:02;101630.02;;;-2.18;99.17
57900;BME280;60605;53.716;19.940;2023-02-28T23:56:12;101633.19;;;-2.18;99.21
